Airport Name : Hamilton Island

Other Name : Hamilton Island

ICAO : YBHM

IATA : HTI

FAA :

Latitude : -20.358056

Longitude : 148.951667

Country : Australia

Local Date and Time : 08 Mar 2021 18:32

 

TAF (Terminal Aerodrome Forecast)

TAF YBHM 080511Z 0806/0818 09013KT 9999 SCT030 FM081200 08012KT 9999 SCT025

 

METAR (METeorological Aerodrome Report)

YBHM 080800Z AUTO 08014KT 9999 // SCT028 27/21 Q1013

YBHM 080730Z AUTO 09013KT 9999 // SCT030 27/21 Q1013 RF00.0/000.0

YBHM 080700Z AUTO 09014KT 9999 // SCT028 BKN042 27/21 Q1013

YBHM 080630Z AUTO 09013KT 9999 // SCT030 28/21 Q1013 RF00.0/000.0

YBHM 080600Z AUTO 10013KT 9999 // NCD 28/21 Q1013

YBHM 080530Z AUTO 09013KT 9999 // NCD 28/21 Q1013 RF00.0/000.0

YBHM 080500Z AUTO 09014KT 9999 // NCD 28/21 Q1013

To Charter a Jet Click here.